Terminal Aerodrome Forecast
Issued by NWS

Home | Current Version | Previous Version | Text Only | Print | Product List | Glossary On
Versions: 1 2 3 4 5 6 7 8 9 10 11
000
FTUS46 KOTX 240524
TAFMWH
TAF
KMWH 240524Z 2406/2506 21007KT P6SM SCT060 BKN110 OVC200
     FM241400 16005KT P6SM VCSH BKN035 OVC060
     FM242000 21006KT P6SM VCSH SCT040 OVC100
     FM250200 25006KT P6SM SCT050 BKN100=

USA.gov is the U.S. government's official web portal to all federal, state and local government web resources and services.